Time;durP1;ratioP1;P1;durP2;ratioP2;P2;SDS_P1;SDS_P2;PMS_P1;PMS_P2;Temp;Humidity;BMP_temperature;BMP_pressure;BME280_temperature;BME280_humidity;BME280_pressure;Samples;Min_cycle;Max_cycle;Signal;HPM_P1;HPM_P2
2023/07/19 00:00:45;;;;;;;4.13;2.60;;;21.20;99.90;;;;;;5015835;28;20208;-73
2023/07/19 00:03:10;;;;;;;6.32;2.78;;;21.20;99.90;;;;;;5014815;28;20213;-73
2023/07/19 00:05:36;;;;;;;4.70;3.15;;;21.20;99.90;;;;;;5010201;28;20219;-72
2023/07/19 00:08:04;;;;;;;6.22;3.10;;;21.10;99.90;;;;;;5010963;28;20178;-73
2023/07/19 00:10:31;;;;;;;5.55;3.33;;;21.10;99.90;;;;;;5014281;28;20230;-72
2023/07/19 00:12:56;;;;;;;3.78;2.67;;;21.10;99.90;;;;;;5011157;28;20284;-73
2023/07/19 00:15:22;;;;;;;5.95;2.88;;;21.00;99.90;;;;;;5018587;28;20707;-73
2023/07/19 00:17:48;;;;;;;4.90;2.80;;;21.00;99.90;;;;;;5011364;28;20722;-73
2023/07/19 00:20:17;;;;;;;5.65;2.70;;;20.90;99.90;;;;;;5017670;28;20208;-73
2023/07/19 00:22:42;;;;;;;5.68;2.97;;;20.90;99.90;;;;;;5012904;28;20646;-73
2023/07/19 00:25:08;;;;;;;4.90;2.78;;;21.00;99.90;;;;;;5018561;28;20227;-73
2023/07/19 00:27:34;;;;;;;3.45;2.17;;;21.00;99.90;;;;;;5014864;28;20282;-74
2023/07/19 00:29:59;;;;;;;3.65;2.30;;;20.90;99.90;;;;;;5018515;28;20211;-72
2023/07/19 00:32:25;;;;;;;3.83;2.42;;;20.90;99.90;;;;;;5020483;28;20220;-73
2023/07/19 00:34:51;;;;;;;3.55;2.38;;;20.90;99.90;;;;;;5019220;28;20727;-73
2023/07/19 00:37:16;;;;;;;3.42;2.00;;;20.90;99.90;;;;;;5019193;28;20208;-73
2023/07/19 00:39:42;;;;;;;3.42;1.98;;;20.80;99.90;;;;;;5008009;28;20287;-73
2023/07/19 00:42:08;;;;;;;4.93;2.05;;;20.80;99.90;;;;;;5009588;28;20225;-73
2023/07/19 00:44:34;;;;;;;3.33;2.17;;;20.80;99.90;;;;;;5019090;28;20300;-72
2023/07/19 00:47:02;;;;;;;3.58;2.50;;;20.80;99.90;;;;;;5012963;28;20807;-73
2023/07/19 00:49:32;;;;;;;5.13;2.65;;;20.70;99.90;;;;;;5018646;28;20535;-73
2023/07/19 00:52:02;;;;;;;3.20;2.13;;;20.80;99.90;;;;;;5010697;28;20213;-74
2023/07/19 00:54:29;;;;;;;4.07;2.00;;;20.70;99.90;;;;;;5013630;28;20216;-73
2023/07/19 00:56:54;;;;;;;3.13;2.15;;;20.60;99.90;;;;;;5010588;28;20286;-72
2023/07/19 00:59:23;;;;;;;3.55;2.40;;;20.70;99.90;;;;;;5014874;28;20352;-73
2023/07/19 01:01:50;;;;;;;4.40;2.17;;;20.60;99.90;;;;;;5017606;28;20196;-73
2023/07/19 01:04:15;;;;;;;5.13;2.50;;;20.60;99.90;;;;;;5018334;28;20243;-73
2023/07/19 01:06:42;;;;;;;5.15;2.35;;;20.60;99.90;;;;;;5014242;28;20267;-73
2023/07/19 01:09:09;;;;;;;3.20;2.13;;;20.60;99.90;;;;;;5020100;28;20223;-73
2023/07/19 01:11:35;;;;;;;4.40;2.10;;;20.50;99.90;;;;;;5017226;28;20219;-73
2023/07/19 01:14:01;;;;;;;6.07;2.42;;;20.40;99.90;;;;;;5019308;28;20215;-74
2023/07/19 01:16:26;;;;;;;4.13;2.72;;;20.40;99.90;;;;;;5007913;28;20169;-74
2023/07/19 01:18:52;;;;;;;3.67;2.20;;;20.40;99.90;;;;;;5007630;28;20208;-73
2023/07/19 01:21:18;;;;;;;3.85;2.20;;;20.40;99.90;;;;;;5011747;28;20275;-73
2023/07/19 01:23:43;;;;;;;2.65;2.10;;;20.40;99.90;;;;;;5009733;28;20307;-72
2023/07/19 01:26:09;;;;;;;3.55;2.30;;;20.30;99.90;;;;;;5011125;28;20202;-73
2023/07/19 01:28:34;;;;;;;4.63;1.80;;;20.30;99.90;;;;;;5012747;28;20267;-74
2023/07/19 01:31:04;;;;;;;3.85;1.52;;;20.20;99.90;;;;;;5010598;28;20296;-73
2023/07/19 01:33:30;;;;;;;4.05;1.90;;;20.10;99.90;;;;;;5016789;28;20216;-73
2023/07/19 01:35:55;;;;;;;4.57;1.85;;;20.10;99.90;;;;;;5015360;28;20681;-73
2023/07/19 01:38:21;;;;;;;2.83;2.08;;;20.10;99.90;;;;;;5016925;28;20774;-73
2023/07/19 01:40:46;;;;;;;4.53;1.92;;;20.00;99.90;;;;;;5013224;28;20201;-73
2023/07/19 01:43:12;;;;;;;3.55;2.28;;;19.90;99.90;;;;;;5017044;28;20629;-73
2023/07/19 01:45:38;;;;;;;3.00;1.95;;;19.90;99.90;;;;;;5014990;28;20695;-73
2023/07/19 01:48:04;;;;;;;2.22;1.60;;;19.80;99.90;;;;;;5017382;28;20299;-73
2023/07/19 01:50:29;;;;;;;3.90;2.13;;;19.80;99.90;;;;;;5019255;28;20213;-73
2023/07/19 01:52:55;;;;;;;2.38;1.77;;;19.80;99.90;;;;;;5013307;28;20212;-74
2023/07/19 01:55:21;;;;;;;3.58;2.20;;;19.70;99.90;;;;;;5010471;28;20225;-73
2023/07/19 01:57:48;;;;;;;8.85;2.35;;;19.80;99.90;;;;;;5013511;28;20216;-73
2023/07/19 02:00:14;;;;;;;2.63;1.95;;;19.70;99.90;;;;;;5013503;28;20941;-73
2023/07/19 02:02:40;;;;;;;5.00;2.20;;;19.70;99.90;;;;;;5016626;28;20613;-73
2023/07/19 02:05:06;;;;;;;3.88;2.42;;;19.70;99.90;;;;;;5012633;28;20208;-73
2023/07/19 02:07:31;;;;;;;3.95;2.08;;;19.70;99.90;;;;;;5019095;28;20216;-74
2023/07/19 02:09:57;;;;;;;5.57;2.60;;;19.70;99.90;;;;;;5014571;28;20652;-73
2023/07/19 02:12:23;;;;;;;5.82;2.47;;;19.70;99.90;;;;;;5020572;28;20212;-73
2023/07/19 02:14:48;;;;;;;2.97;1.90;;;19.70;99.90;;;;;;5016026;28;20307;-73
2023/07/19 02:17:14;;;;;;;5.78;2.22;;;19.60;99.90;;;;;;5019750;28;20215;-74
2023/07/19 02:19:40;;;;;;;5.05;2.20;;;19.60;99.90;;;;;;5018834;28;20230;-73
2023/07/19 02:22:05;;;;;;;2.30;1.83;;;19.60;99.90;;;;;;5018479;28;20771;-73
2023/07/19 02:24:31;;;;;;;4.78;2.30;;;19.60;99.90;;;;;;5021077;28;20270;-73
2023/07/19 02:26:57;;;;;;;2.80;1.77;;;19.50;99.90;;;;;;5027854;28;20254;-73
2023/07/19 02:29:22;;;;;;;4.68;2.45;;;19.50;99.90;;;;;;5007784;28;20256;-74
2023/07/19 02:31:51;;;;;;;4.40;2.58;;;19.50;99.90;;;;;;5014221;28;20296;-73
2023/07/19 02:34:18;;;;;;;3.38;2.55;;;19.50;99.90;;;;;;5012629;28;20225;-74
2023/07/19 02:36:45;;;;;;;4.13;2.50;;;19.50;99.90;;;;;;5015436;28;20207;-73
2023/07/19 02:39:10;;;;;;;5.57;2.85;;;19.50;99.90;;;;;;5011302;28;20209;-73
2023/07/19 02:41:36;;;;;;;5.10;3.00;;;19.50;99.90;;;;;;5017432;28;20224;-73
2023/07/19 02:44:01;;;;;;;4.32;2.10;;;19.60;99.90;;;;;;5011565;28;20589;-73
2023/07/19 02:46:36;;;;;;;5.22;2.00;;;19.50;99.90;;;;;;5020104;28;20188;-73
2023/07/19 02:49:02;;;;;;;4.93;3.03;;;19.50;99.90;;;;;;5005356;28;20803;-73
2023/07/19 02:51:27;;;;;;;7.75;2.97;;;19.40;99.90;;;;;;5022619;28;20211;-73
2023/07/19 02:53:53;;;;;;;4.88;2.72;;;19.50;99.90;;;;;;5019188;28;20296;-73
2023/07/19 02:56:19;;;;;;;5.88;2.45;;;19.50;99.90;;;;;;5023060;28;20266;-74
2023/07/19 02:58:44;;;;;;;3.08;2.10;;;19.50;99.90;;;;;;5014928;28;20228;-73
2023/07/19 03:01:14;;;;;;;3.67;2.30;;;19.60;99.90;;;;;;5022048;28;20216;-74
2023/07/19 03:03:41;;;;;;;5.95;2.35;;;19.70;99.90;;;;;;5017637;28;20223;-74
2023/07/19 03:06:10;;;;;;;5.22;2.38;;;19.70;99.90;;;;;;5019112;28;20212;-74
2023/07/19 03:08:37;;;;;;;3.83;2.25;;;19.80;99.90;;;;;;5016878;28;20561;-74
2023/07/19 03:11:03;;;;;;;4.60;2.75;;;19.80;99.90;;;;;;5010884;28;20698;-73
2023/07/19 03:13:28;;;;;;;14.00;9.18;;;19.80;99.90;;;;;;5021042;28;20210;-74
2023/07/19 03:15:54;;;;;;;18.67;11.40;;;19.80;99.90;;;;;;5020013;28;20216;-73
2023/07/19 03:18:20;;;;;;;9.70;4.45;;;19.80;99.90;;;;;;5020120;28;20209;-73
2023/07/19 03:20:45;;;;;;;7.03;3.58;;;19.90;99.90;;;;;;5019191;28;20270;-74
2023/07/19 03:23:11;;;;;;;3.88;2.05;;;19.90;99.90;;;;;;5019841;28;20217;-72
2023/07/19 03:25:37;;;;;;;3.97;1.98;;;19.90;99.90;;;;;;5021900;28;20181;-73
2023/07/19 03:28:02;;;;;;;4.05;2.70;;;19.90;99.90;;;;;;5019388;28;20292;-73
2023/07/19 03:30:28;;;;;;;3.83;2.33;;;19.90;99.90;;;;;;5020477;28;20212;-73
2023/07/19 03:32:54;;;;;;;3.80;2.05;;;19.90;99.90;;;;;;5023256;28;20232;-73
2023/07/19 03:35:19;;;;;;;3.50;2.20;;;19.90;99.90;;;;;;5016946;28;20582;-73
2023/07/19 03:37:45;;;;;;;2.55;2.00;;;19.90;99.90;;;;;;5019291;28;20651;-73
2023/07/19 03:40:12;;;;;;;3.80;2.03;;;20.00;99.90;;;;;;5021466;28;20219;-73
2023/07/19 03:42:38;;;;;;;4.82;2.03;;;20.00;99.90;;;;;;5016716;28;20277;-74
2023/07/19 03:45:05;;;;;;;3.55;2.08;;;20.00;99.90;;;;;;5019169;28;20306;-73
2023/07/19 03:47:30;;;;;;;1.92;1.70;;;20.00;99.90;;;;;;5020785;28;20216;-74
2023/07/19 03:49:56;;;;;;;4.35;1.80;;;20.00;99.90;;;;;;5018771;28;20188;-73
2023/07/19 03:52:21;;;;;;;5.32;1.52;;;20.10;99.90;;;;;;5018646;28;20205;-73
2023/07/19 03:54:50;;;;;;;3.10;1.63;;;20.20;99.90;;;;;;5021131;28;20220;-73
2023/07/19 03:57:16;;;;;;;5.70;1.80;;;20.40;99.90;;;;;;5015823;28;20209;-74
2023/07/19 03:59:42;;;;;;;4.70;1.70;;;20.50;99.90;;;;;;5020513;28;20586;-73
2023/07/19 04:02:07;;;;;;;2.97;1.50;;;20.70;99.90;;;;;;5016459;28;20242;-73
2023/07/19 04:04:33;;;;;;;2.90;1.80;;;21.80;99.90;;;;;;5021895;28;20242;-73
2023/07/19 04:06:58;;;;;;;3.33;1.65;;;22.30;99.90;;;;;;5016352;28;20741;-73
2023/07/19 04:09:24;;;;;;;2.17;1.75;;;22.90;99.90;;;;;;5021103;28;20205;-73
2023/07/19 04:11:50;;;;;;;5.03;2.03;;;22.80;99.90;;;;;;5018179;28;20216;-73
2023/07/19 04:14:15;;;;;;;3.03;1.73;;;22.70;99.90;;;;;;5020522;28;20271;-74
2023/07/19 04:16:41;;;;;;;3.47;1.73;;;22.70;99.90;;;;;;5019660;28;20180;-73
2023/07/19 04:19:07;;;;;;;3.17;1.50;;;22.50;99.90;;;;;;5016197;28;20255;-73
2023/07/19 04:21:33;;;;;;;5.03;1.90;;;22.20;99.90;;;;;;5010805;28;20221;-73
2023/07/19 04:23:58;;;;;;;3.08;1.85;;;21.80;99.90;;;;;;5014413;28;20243;-74
2023/07/19 04:26:24;;;;;;;2.65;2.15;;;21.70;99.90;;;;;;5009622;28;20793;-73
2023/07/19 04:28:49;;;;;;;3.53;1.92;;;21.50;99.90;;;;;;5017817;28;20172;-73
2023/07/19 04:31:15;;;;;;;6.35;2.30;;;21.40;99.90;;;;;;5018421;28;20212;-73
2023/07/19 04:33:41;;;;;;;2.95;1.98;;;21.40;99.90;;;;;;5020161;28;20721;-73
2023/07/19 04:36:14;;;;;;;3.83;1.80;;;21.10;99.90;;;;;;5020203;28;20273;-73
2023/07/19 04:38:40;;;;;;;3.05;2.00;;;21.10;99.90;;;;;;5016506;28;20649;-73
2023/07/19 04:41:06;;;;;;;3.20;1.98;;;21.10;99.90;;;;;;5016890;28;20203;-73
2023/07/19 04:43:32;;;;;;;5.10;1.75;;;21.00;99.90;;;;;;5021702;28;20197;-73
2023/07/19 04:45:57;;;;;;;4.43;2.08;;;21.00;99.90;;;;;;5012908;28;20263;-73
2023/07/19 04:48:23;;;;;;;3.63;1.90;;;21.00;99.90;;;;;;5019326;28;20235;-74
2023/07/19 04:50:56;;;;;;;5.45;2.10;;;21.00;99.90;;;;;;5016483;28;20224;-73
2023/07/19 04:53:22;;;;;;;4.30;1.77;;;20.80;99.90;;;;;;5020253;28;20281;-73
2023/07/19 04:55:50;;;;;;;2.97;1.90;;;20.90;99.90;;;;;;5015852;28;20188;-73
2023/07/19 04:58:16;;;;;;;4.15;1.65;;;21.00;99.90;;;;;;5009743;28;20979;-73
2023/07/19 05:00:42;;;;;;;3.22;2.08;;;21.20;99.90;;;;;;5013680;28;20246;-72
2023/07/19 05:03:07;;;;;;;3.40;1.90;;;20.90;99.90;;;;;;5009034;28;20281;-73
2023/07/19 05:05:33;;;;;;;2.60;1.50;;;21.00;99.90;;;;;;5012326;28;20209;-73
2023/07/19 05:07:59;;;;;;;3.97;1.70;;;21.10;99.90;;;;;;5013286;28;20172;-73
2023/07/19 05:10:25;;;;;;;3.30;1.90;;;21.20;99.90;;;;;;5012161;28;20305;-73
2023/07/19 05:12:51;;;;;;;5.00;2.00;;;21.20;99.90;;;;;;5013757;28;20303;-73
2023/07/19 05:15:17;;;;;;;3.83;2.00;;;21.30;99.90;;;;;;5015458;28;20223;-73
2023/07/19 05:17:43;;;;;;;3.08;1.98;;;21.40;99.90;;;;;;5016616;28;20204;-73
2023/07/19 05:20:09;;;;;;;3.05;1.75;;;21.40;99.90;;;;;;5012893;28;20185;-73
2023/07/19 05:22:35;;;;;;;3.45;1.80;;;21.40;99.90;;;;;;5017635;28;20709;-73
2023/07/19 05:25:03;;;;;;;3.13;1.67;;;21.60;99.90;;;;;;5011259;28;20288;-73
2023/07/19 05:27:29;;;;;;;4.13;2.08;;;21.70;99.90;;;;;;5014694;28;20597;-74
2023/07/19 05:29:54;;;;;;;3.45;2.10;;;21.90;99.90;;;;;;5016285;28;20224;-74
2023/07/19 05:32:20;;;;;;;2.67;1.67;;;22.00;99.90;;;;;;5016720;28;20703;-74
2023/07/19 05:34:46;;;;;;;3.88;1.55;;;22.00;99.90;;;;;;5006291;28;20197;-73
2023/07/19 05:37:11;;;;;;;4.18;2.05;;;22.10;99.90;;;;;;5006581;28;20231;-73
2023/07/19 05:39:37;;;;;;;5.10;1.85;;;22.10;99.90;;;;;;5018174;28;20232;-73
2023/07/19 05:42:03;;;;;;;3.42;1.80;;;22.00;99.90;;;;;;5010318;28;20606;-72
2023/07/19 05:44:29;;;;;;;4.10;1.60;;;22.10;99.90;;;;;;5008470;28;20523;-73
2023/07/19 05:46:54;;;;;;;2.55;1.70;;;22.20;99.90;;;;;;5019805;28;20191;-73
2023/07/19 05:49:20;;;;;;;2.92;1.75;;;22.20;99.90;;;;;;5014703;28;20224;-73
2023/07/19 05:51:46;;;;;;;2.92;1.63;;;22.30;99.90;;;;;;5016179;28;20204;-74
2023/07/19 05:54:12;;;;;;;3.20;1.70;;;22.40;99.90;;;;;;5011496;28;20212;-74
2023/07/19 05:56:38;;;;;;;7.53;1.90;;;22.50;99.90;;;;;;5014103;28;20579;-72
2023/07/19 05:59:04;;;;;;;6.72;1.60;;;22.70;99.90;;;;;;5009238;28;20185;-72
2023/07/19 06:01:30;;;;;;;3.95;2.20;;;22.90;99.90;;;;;;5017522;28;20567;-74
2023/07/19 06:03:55;;;;;;;4.38;1.88;;;23.00;99.90;;;;;;5014802;28;20209;-74
2023/07/19 06:06:21;;;;;;;2.47;1.60;;;23.50;99.90;;;;;;5017610;28;20292;-73
2023/07/19 06:08:46;;;;;;;2.40;1.60;;;23.70;99.90;;;;;;5016123;28;20205;-74
2023/07/19 06:11:12;;;;;;;5.13;2.20;;;23.90;99.90;;;;;;5008889;28;20195;-73
2023/07/19 06:13:38;;;;;;;2.13;1.60;;;24.10;99.90;;;;;;5007386;28;20201;-73
2023/07/19 06:16:04;;;;;;;4.20;1.58;;;24.30;99.90;;;;;;5011958;28;20208;-73
2023/07/19 06:18:30;;;;;;;3.75;1.58;;;24.40;99.90;;;;;;5013153;28;20208;-73
2023/07/19 06:20:55;;;;;;;5.20;1.88;;;24.50;99.90;;;;;;5018953;28;20216;-73
2023/07/19 06:23:21;;;;;;;3.25;1.75;;;24.60;99.90;;;;;;5010368;28;20291;-73
2023/07/19 06:25:49;;;;;;;3.00;1.67;;;24.80;99.90;;;;;;5016649;28;20179;-74
2023/07/19 06:28:15;;;;;;;4.97;1.77;;;25.00;99.90;;;;;;5012485;28;20209;-73
2023/07/19 06:30:41;;;;;;;4.18;2.28;;;24.90;99.90;;;;;;5015766;28;20588;-73
2023/07/19 06:33:07;;;;;;;4.75;2.10;;;24.80;99.90;;;;;;5016166;28;20216;-73
2023/07/19 06:35:33;;;;;;;4.88;1.77;;;24.90;99.90;;;;;;5015953;28;20327;-73
2023/07/19 06:37:59;;;;;;;2.40;1.52;;;25.00;99.90;;;;;;5016021;28;20172;-73
2023/07/19 06:40:26;;;;;;;2.33;1.85;;;25.50;99.90;;;;;;5016423;28;20247;-73
2023/07/19 06:42:52;;;;;;;3.85;1.83;;;26.30;99.90;;;;;;5018326;28;20224;-73
2023/07/19 06:45:18;;;;;;;3.72;1.65;;;26.40;99.90;;;;;;5017730;28;20602;-73
2023/07/19 06:47:44;;;;;;;4.70;2.10;;;26.30;99.90;;;;;;5010939;28;20207;-74
2023/07/19 06:50:10;;;;;;;2.22;1.65;;;26.10;99.90;;;;;;5014333;28;20555;-73
2023/07/19 06:52:36;;;;;;;7.63;1.90;;;25.90;99.90;;;;;;5011193;28;20249;-73
2023/07/19 06:55:03;;;;;;;3.60;1.90;;;25.90;99.90;;;;;;5016820;28;20216;-73
2023/07/19 06:57:28;;;;;;;3.33;1.83;;;26.40;99.90;;;;;;5009648;28;20202;-73
2023/07/19 06:59:54;;;;;;;2.80;1.83;;;28.00;99.90;;;;;;5018361;28;20334;-73
2023/07/19 07:02:20;;;;;;;3.85;1.85;;;30.10;96.30;;;;;;5011218;28;20220;-73
2023/07/19 07:04:46;;;;;;;3.42;2.08;;;31.80;92.30;;;;;;5018019;28;20643;-73
2023/07/19 07:07:14;;;;;;;2.33;1.90;;;31.90;90.00;;;;;;5016582;28;20562;-73
2023/07/19 07:09:43;;;;;;;3.85;2.72;;;31.30;88.80;;;;;;5019598;28;20212;-73
2023/07/19 07:12:10;;;;;;;5.13;2.88;;;30.80;88.70;;;;;;5018241;28;20683;-73
2023/07/19 07:14:36;;;;;;;3.00;2.13;;;30.40;89.90;;;;;;5019439;28;20235;-73
2023/07/19 07:17:02;;;;;;;4.05;2.40;;;30.30;90.00;;;;;;5018399;28;20187;-73
2023/07/19 07:19:28;;;;;;;4.97;1.98;;;29.90;90.40;;;;;;5020490;28;20181;-73
2023/07/19 07:21:54;;;;;;;4.20;2.20;;;29.30;90.80;;;;;;5017514;28;20602;-72
2023/07/19 07:24:19;;;;;;;4.50;2.25;;;29.00;91.60;;;;;;5010788;28;20216;-72
2023/07/19 07:26:45;;;;;;;3.75;2.28;;;29.00;91.90;;;;;;5006808;28;20217;-73
2023/07/19 07:29:11;;;;;;;7.45;2.50;;;29.70;91.50;;;;;;5013649;28;20173;-73
2023/07/19 07:31:36;;;;;;;4.38;2.30;;;30.10;90.90;;;;;;5016748;28;20184;-74
2023/07/19 07:34:02;;;;;;;2.80;2.17;;;31.10;90.00;;;;;;5015838;28;20220;-73
2023/07/19 07:36:28;;;;;;;8.50;2.50;;;31.70;87.10;;;;;;5003449;28;20680;-72
2023/07/19 07:38:54;;;;;;;4.00;2.03;;;32.80;84.90;;;;;;5018083;28;20211;-74
2023/07/19 07:41:19;;;;;;;4.43;2.15;;;34.20;82.00;;;;;;5010227;28;20236;-73
2023/07/19 07:43:45;;;;;;;4.30;2.38;;;35.30;77.90;;;;;;5017793;28;20204;-72
2023/07/19 07:46:11;;;;;;;8.13;5.45;;;35.50;75.20;;;;;;5015328;28;20247;-72
2023/07/19 07:48:36;;;;;;;5.88;2.78;;;34.60;75.70;;;;;;5016823;28;21083;-73
2023/07/19 07:51:02;;;;;;;4.20;2.92;;;34.60;75.20;;;;;;5019592;28;20185;-74
2023/07/19 07:53:27;;;;;;;16.90;12.55;;;34.20;75.30;;;;;;5015987;28;20662;-74
2023/07/19 07:55:53;;;;;;;10.65;7.20;;;35.30;75.00;;;;;;5019248;28;20757;-72
2023/07/19 07:58:19;;;;;;;6.60;3.22;;;35.90;72.20;;;;;;5015981;28;20571;-73
2023/07/19 08:00:45;;;;;;;3.72;2.58;;;35.50;72.60;;;;;;5005964;28;20213;-72
2023/07/19 08:03:11;;;;;;;6.22;2.45;;;34.10;71.20;;;;;;4996854;28;20203;-72
2023/07/19 08:05:40;;;;;;;3.75;2.80;;;33.20;73.50;;;;;;5006862;28;20212;-73
2023/07/19 08:08:06;;;;;;;5.78;2.47;;;31.90;76.00;;;;;;5020469;28;20288;-73
2023/07/19 08:10:33;;;;;;;3.95;2.38;;;30.90;78.60;;;;;;5012843;28;20241;-74
2023/07/19 08:12:58;;;;;;;3.60;1.90;;;30.30;79.60;;;;;;5015192;28;20208;-73
2023/07/19 08:15:24;;;;;;;5.07;2.30;;;29.70;81.40;;;;;;5011980;28;20216;-73
2023/07/19 08:17:52;;;;;;;6.28;2.20;;;29.20;82.50;;;;;;5017919;28;20197;-72
2023/07/19 08:20:18;;;;;;;3.70;1.95;;;28.80;84.40;;;;;;5015130;28;20268;-72
2023/07/19 08:22:43;;;;;;;3.13;2.30;;;28.50;85.90;;;;;;5015836;28;20263;-73
2023/07/19 08:25:09;;;;;;;8.30;3.97;;;28.20;87.00;;;;;;5017153;28;20759;-73
2023/07/19 08:27:35;;;;;;;4.70;2.40;;;28.00;88.30;;;;;;5016662;28;20209;-72
2023/07/19 08:30:05;;;;;;;7.68;2.85;;;27.90;88.90;;;;;;5016920;28;20254;-72
2023/07/19 08:32:32;;;;;;;7.15;2.72;;;27.90;89.30;;;;;;5018297;28;20279;-73
2023/07/19 08:34:57;;;;;;;9.18;4.88;;;27.90;90.00;;;;;;5017949;28;20717;-73
2023/07/19 08:37:23;;;;;;;3.50;1.88;;;28.30;89.60;;;;;;5008107;28;20209;-73
2023/07/19 08:39:49;;;;;;;4.72;2.33;;;28.50;88.30;;;;;;5006949;28;20225;-73
2023/07/19 08:42:15;;;;;;;5.07;2.40;;;29.00;87.70;;;;;;5012684;28;20303;-73
2023/07/19 08:44:40;;;;;;;4.32;2.13;;;29.40;86.60;;;;;;5007171;28;20233;-73
2023/07/19 08:47:09;;;;;;;4.60;2.58;;;30.40;84.40;;;;;;5014506;28;20685;-73
2023/07/19 08:49:36;;;;;;;5.22;2.10;;;30.80;82.90;;;;;;5013031;28;20274;-73
2023/07/19 08:52:03;;;;;;;3.40;2.13;;;31.00;82.10;;;;;;5010908;28;20216;-73
2023/07/19 08:54:29;;;;;;;2.33;2.05;;;30.80;81.40;;;;;;5008778;28;20691;-73
2023/07/19 08:56:54;;;;;;;6.03;2.17;;;30.90;80.80;;;;;;5014809;28;20238;-73
2023/07/19 08:59:20;;;;;;;5.55;2.20;;;30.70;81.20;;;;;;5031417;28;20608;-73
2023/07/19 09:01:46;;;;;;;4.10;2.33;;;30.70;81.90;;;;;;5017815;28;20202;-73
2023/07/19 09:04:11;;;;;;;3.47;1.92;;;30.90;80.50;;;;;;5015485;28;20208;-73
2023/07/19 09:06:39;;;;;;;4.10;2.10;;;31.00;80.40;;;;;;5022120;28;20220;-74
2023/07/19 09:09:13;;;;;;;3.70;1.88;;;31.60;79.60;;;;;;5014885;28;20204;-72
2023/07/19 09:11:51;;;;;;;4.10;1.95;;;31.80;79.30;;;;;;5011414;28;20247;-73
2023/07/19 09:14:16;;;;;;;4.15;2.20;;;31.40;79.50;;;;;;5020403;28;20611;-73
2023/07/19 09:16:44;;;;;;;1.83;1.63;;;31.50;79.10;;;;;;5005772;28;20173;-73
2023/07/19 09:19:10;;;;;;;2.75;1.70;;;31.80;78.10;;;;;;5011975;28;20291;-73
2023/07/19 09:21:47;;;;;;;2.83;1.83;;;31.80;77.00;;;;;;5007686;28;20221;-74
2023/07/19 09:24:14;;;;;;;2.70;1.83;;;32.20;76.30;;;;;;5011274;28;20220;-74
2023/07/19 09:26:49;;;;;;;5.97;2.22;;;32.50;74.20;;;;;;5006464;28;20208;-74
2023/07/19 09:29:14;;;;;;;3.15;1.45;;;32.90;74.20;;;;;;5018331;28;20176;-73
2023/07/19 09:31:58;;;;;;;5.82;1.67;;;33.20;74.10;;;;;;5014977;28;20603;-74
2023/07/19 09:34:26;;;;;;;4.15;1.70;;;33.60;74.10;;;;;;5032682;28;20597;-74
2023/07/19 09:36:53;;;;;;;2.63;1.80;;;33.60;74.40;;;;;;5014780;28;20216;-74
2023/07/19 09:39:19;;;;;;;3.83;1.85;;;33.20;74.60;;;;;;5013601;28;20732;-74
2023/07/19 09:41:45;;;;;;;2.83;1.83;;;32.90;75.10;;;;;;5014787;28;20805;-74
2023/07/19 09:44:13;;;;;;;4.38;1.90;;;32.20;75.00;;;;;;5016070;28;20230;-74
2023/07/19 09:46:39;;;;;;;4.03;2.10;;;31.50;76.90;;;;;;5016807;28;20280;-73
2023/07/19 09:49:05;;;;;;;3.22;2.13;;;31.10;78.90;;;;;;5010640;28;20300;-73
2023/07/19 09:51:33;;;;;;;3.35;2.08;;;30.90;78.80;;;;;;5008845;28;20208;-74
2023/07/19 09:54:10;;;;;;;3.75;2.00;;;30.90;78.90;;;;;;5007207;28;20220;-74
2023/07/19 09:56:38;;;;;;;3.58;2.38;;;31.20;79.10;;;;;;5009961;28;20261;-74
2023/07/19 09:59:06;;;;;;;5.20;1.98;;;31.50;78.90;;;;;;5010487;28;20169;-74
2023/07/19 10:01:33;;;;;;;3.17;2.10;;;31.60;78.50;;;;;;5010719;28;20199;-73
2023/07/19 10:03:59;;;;;;;6.85;2.28;;;31.30;78.10;;;;;;5011313;28;20599;-74
2023/07/19 10:06:31;;;;;;;4.03;1.83;;;31.10;78.10;;;;;;5012096;28;20204;-73
2023/07/19 10:09:23;;;;;;;4.80;2.28;;;31.00;78.50;;;;;;5013922;28;20213;-73
2023/07/19 10:11:50;;;;;;;4.70;2.15;;;30.20;78.30;;;;;;5012640;28;20581;-73
2023/07/19 10:14:25;;;;;;;4.90;2.08;;;29.70;78.40;;;;;;5016952;28;20196;-74
2023/07/19 10:16:58;;;;;;;2.50;2.20;;;29.50;79.80;;;;;;5016156;28;20367;-73
2023/07/19 10:19:24;;;;;;;5.65;2.40;;;29.40;80.20;;;;;;5019218;28;20220;-73
2023/07/19 10:22:06;;;;;;;5.93;2.40;;;29.20;79.40;;;;;;5019637;28;20707;-74
2023/07/19 10:24:35;;;;;;;3.88;1.95;;;29.10;80.90;;;;;;5000320;28;20217;-73
2023/07/19 10:27:08;;;;;;;3.88;1.90;;;29.20;80.80;;;;;;5013312;28;20202;-74
2023/07/19 10:29:47;;;;;;;3.72;1.77;;;29.50;80.60;;;;;;5012176;28;20229;-74
2023/07/19 10:32:13;;;;;;;3.50;1.85;;;29.60;80.10;;;;;;5014578;28;20180;-74
2023/07/19 10:34:44;;;;;;;6.35;2.15;;;29.80;80.00;;;;;;5012269;28;20212;-73
2023/07/19 10:37:09;;;;;;;4.13;2.08;;;30.10;78.50;;;;;;5014784;28;20692;-74
2023/07/19 10:39:35;;;;;;;8.20;2.30;;;30.60;78.70;;;;;;5012854;28;20212;-74
2023/07/19 10:42:01;;;;;;;3.30;1.85;;;30.70;78.40;;;;;;5014840;28;20309;-74
2023/07/19 10:44:27;;;;;;;3.08;1.80;;;31.10;78.10;;;;;;5018243;28;20706;-74
2023/07/19 10:46:56;;;;;;;3.53;1.88;;;30.80;77.20;;;;;;5019691;28;20252;-73
2023/07/19 10:49:26;;;;;;;3.75;1.88;;;31.10;77.60;;;;;;5016921;28;20226;-74
2023/07/19 10:51:56;;;;;;;3.38;1.90;;;31.20;75.90;;;;;;5016400;28;20209;-74
2023/07/19 10:54:22;;;;;;;5.00;2.10;;;31.10;76.30;;;;;;5017650;28;20220;-74
2023/07/19 10:56:50;;;;;;;2.65;1.70;;;30.70;76.60;;;;;;5018718;28;20224;-74
2023/07/19 10:59:16;;;;;;;4.78;2.10;;;30.60;77.90;;;;;;5022087;28;20188;-73
2023/07/19 11:01:43;;;;;;;3.47;1.95;;;30.80;77.90;;;;;;5021024;28;20213;-74
2023/07/19 11:04:08;;;;;;;4.35;2.15;;;30.80;77.30;;;;;;5010280;28;20244;-73
2023/07/19 11:06:37;;;;;;;4.30;2.03;;;30.70;77.90;;;;;;5012842;28;20263;-74
2023/07/19 11:09:08;;;;;;;5.05;2.00;;;30.40;78.20;;;;;;5009535;28;20283;-73
2023/07/19 11:11:38;;;;;;;4.55;2.55;;;30.10;79.40;;;;;;5013103;28;20212;-74
2023/07/19 11:14:04;;;;;;;3.35;2.10;;;30.20;79.10;;;;;;5012003;28;20268;-74
2023/07/19 11:16:31;;;;;;;2.95;1.80;;;30.30;79.30;;;;;;5020581;28;20238;-74
2023/07/19 11:18:57;;;;;;;6.75;2.90;;;30.60;79.00;;;;;;5014336;28;20209;-73
2023/07/19 11:21:27;;;;;;;5.63;2.70;;;31.00;78.90;;;;;;5016376;28;20212;-73
2023/07/19 11:23:53;;;;;;;4.65;2.80;;;31.50;77.80;;;;;;5013048;28;20229;-74
2023/07/19 11:26:19;;;;;;;5.38;3.22;;;31.60;76.40;;;;;;5019169;28;20208;-74
2023/07/19 11:28:45;;;;;;;7.18;2.85;;;31.60;75.60;;;;;;5015401;28;20173;-73
2023/07/19 11:31:34;;;;;;;3.45;2.42;;;31.30;76.40;;;;;;5019513;28;20211;-74
2023/07/19 11:34:07;;;;;;;4.30;2.30;;;31.00;76.80;;;;;;5018884;28;20590;-74
2023/07/19 11:36:33;;;;;;;3.55;2.60;;;30.70;77.00;;;;;;5014246;28;20244;-74
2023/07/19 11:38:59;;;;;;;3.55;2.30;;;30.70;77.50;;;;;;5020329;28;20237;-73
2023/07/19 11:41:25;;;;;;;4.20;1.92;;;30.70;76.90;;;;;;5013168;28;20220;-74
2023/07/19 11:43:51;;;;;;;3.38;2.50;;;30.90;78.20;;;;;;5011901;28;20216;-74
2023/07/19 11:46:17;;;;;;;4.70;2.40;;;31.20;78.30;;;;;;5013832;28;20292;-74
2023/07/19 11:48:43;;;;;;;3.05;2.00;;;31.10;78.60;;;;;;5013358;28;20286;-73
2023/07/19 11:51:09;;;;;;;3.67;2.42;;;31.00;77.90;;;;;;5013615;28;20207;-73
2023/07/19 11:53:34;;;;;;;4.70;2.38;;;30.70;77.50;;;;;;5014606;28;20216;-73
2023/07/19 11:56:00;;;;;;;5.10;2.20;;;30.70;79.20;;;;;;5019730;28;20180;-72
2023/07/19 11:58:26;;;;;;;4.53;1.90;;;30.70;79.00;;;;;;5017002;28;20203;-73
2023/07/19 12:00:51;;;;;;;4.43;1.90;;;30.70;79.70;;;;;;5012641;28;20561;-72
2023/07/19 12:03:17;;;;;;;3.30;2.05;;;30.60;79.80;;;;;;5012559;28;20621;-74
2023/07/19 12:05:43;;;;;;;4.97;2.28;;;30.40;80.60;;;;;;5006500;28;20224;-74
2023/07/19 12:08:09;;;;;;;6.40;3.05;;;30.00;81.30;;;;;;5015075;28;20185;-72
2023/07/19 12:10:36;;;;;;;4.97;2.10;;;29.90;81.40;;;;;;5010374;28;20200;-73
2023/07/19 12:13:02;;;;;;;4.60;2.15;;;29.80;82.40;;;;;;5015167;28;20238;-73
2023/07/19 12:15:28;;;;;;;4.18;2.42;;;29.70;82.00;;;;;;5010300;28;20213;-74
2023/07/19 12:17:54;;;;;;;5.05;2.00;;;29.70;82.60;;;;;;5003776;28;20293;-73
2023/07/19 12:20:20;;;;;;;3.00;2.10;;;29.70;82.90;;;;;;5004403;28;20684;-74
2023/07/19 12:22:47;;;;;;;4.03;2.10;;;29.60;82.90;;;;;;5008770;28;20231;-73
2023/07/19 12:25:13;;;;;;;8.07;2.42;;;29.50;82.60;;;;;;5011787;28;20723;-73
2023/07/19 12:27:39;;;;;;;6.35;3.40;;;29.20;82.90;;;;;;5003637;28;20253;-74
2023/07/19 12:30:05;;;;;;;3.28;2.40;;;28.90;83.50;;;;;;5008758;28;20271;-73
2023/07/19 12:32:32;;;;;;;5.40;2.33;;;28.70;83.60;;;;;;5008783;28;20267;-73
2023/07/19 12:34:57;;;;;;;4.05;2.42;;;28.50;84.20;;;;;;5006426;28;20562;-73
2023/07/19 12:37:23;;;;;;;5.32;2.78;;;28.60;84.70;;;;;;5014449;28;20191;-74
2023/07/19 12:39:50;;;;;;;5.72;2.53;;;28.60;84.90;;;;;;5011114;28;20634;-73
2023/07/19 12:42:16;;;;;;;6.60;2.15;;;28.70;84.80;;;;;;4994425;28;20225;-74